createdAt,value
2023-05-14T00:00:30.442Z,10.41
2023-05-14T00:03:35.396Z,10.69
2023-05-14T00:06:39.853Z,10.06
2023-05-14T00:09:44.264Z,10.29
2023-05-14T00:12:49.039Z,10.42
2023-05-14T00:15:53.647Z,10.45
2023-05-14T00:18:58.161Z,10.41
2023-05-14T00:22:02.511Z,10.36
2023-05-14T00:25:07.454Z,10.68
2023-05-14T00:28:11.848Z,10.29
2023-05-14T00:31:17.080Z,10.00
2023-05-14T00:34:21.751Z,10.24
2023-05-14T00:37:26.179Z,10.49
2023-05-14T00:40:30.646Z,10.40
2023-05-14T00:43:35.060Z,10.34
2023-05-14T00:46:39.504Z,10.36
2023-05-14T00:49:44.238Z,10.50
2023-05-14T00:52:48.835Z,10.24
2023-05-14T00:55:53.329Z,10.56
2023-05-14T00:58:57.724Z,9.97
2023-05-14T01:02:02.261Z,9.87
2023-05-14T01:05:07.440Z,9.84
2023-05-14T01:08:24.239Z,9.97
2023-05-14T01:11:31.608Z,9.75
2023-05-14T01:14:52.188Z,9.64
2023-05-14T01:18:03.927Z,9.79
2023-05-14T01:21:27.257Z,9.68
2023-05-14T01:24:31.671Z,10.06
2023-05-14T01:27:45.539Z,9.96
2023-05-14T01:31:06.082Z,9.95
2023-05-14T01:34:11.626Z,10.11
2023-05-14T01:37:16.669Z,10.05
2023-05-14T01:40:21.660Z,9.95
2023-05-14T01:43:26.339Z,9.73
2023-05-14T01:46:34.386Z,10.00
2023-05-14T01:49:38.965Z,9.84
2023-05-14T01:52:43.414Z,9.94
2023-05-14T01:55:48.101Z,10.19
2023-05-14T01:58:52.696Z,9.67
2023-05-14T02:01:57.144Z,10.12
2023-05-14T02:05:01.735Z,9.42
2023-05-14T02:08:06.166Z,9.87
2023-05-14T02:11:10.580Z,10.03
2023-05-14T02:14:15.615Z,9.78
2023-05-14T02:17:20.228Z,9.70
2023-05-14T02:20:24.722Z,9.82
2023-05-14T02:23:40.346Z,9.68
2023-05-14T02:26:45.340Z,9.73
2023-05-14T02:29:49.786Z,9.77
2023-05-14T02:32:54.276Z,9.62
2023-05-14T02:35:58.954Z,9.61
2023-05-14T02:39:04.554Z,9.54
2023-05-14T02:42:08.989Z,9.71
2023-05-14T02:45:13.382Z,9.59
2023-05-14T02:48:17.967Z,9.54
2023-05-14T02:51:23.665Z,9.43
2023-05-14T02:54:28.034Z,9.22
2023-05-14T02:57:32.555Z,9.34
2023-05-14T03:00:37.227Z,9.21
2023-05-14T03:03:42.165Z,8.95
2023-05-14T03:06:47.091Z,9.00
2023-05-14T03:09:51.479Z,9.06
2023-05-14T03:12:56.036Z,10.40
2023-05-14T03:16:00.648Z,9.78
2023-05-14T03:19:05.220Z,9.72
2023-05-14T03:22:09.901Z,9.74
2023-05-14T03:25:14.414Z,9.44
2023-05-14T03:28:18.912Z,9.55
2023-05-14T03:31:23.440Z,9.36
2023-05-14T03:34:27.980Z,9.35
2023-05-14T03:37:32.474Z,9.42
2023-05-14T03:40:36.998Z,9.35
2023-05-14T03:43:41.505Z,9.07
2023-05-14T03:46:46.312Z,9.02
2023-05-14T03:49:50.932Z,8.28
2023-05-14T03:52:55.504Z,9.04
2023-05-14T03:56:00.559Z,9.02
2023-05-14T03:59:05.290Z,9.12
2023-05-14T04:02:10.041Z,9.27
2023-05-14T04:05:14.652Z,9.04
2023-05-14T04:08:19.750Z,9.10
2023-05-14T04:11:24.262Z,8.93
2023-05-14T04:14:28.769Z,9.03
2023-05-14T04:17:34.940Z,9.09
2023-05-14T04:20:40.459Z,9.02
2023-05-14T04:23:45.230Z,9.36
2023-05-14T04:26:49.795Z,9.46
2023-05-14T04:29:54.221Z,9.36
2023-05-14T04:32:58.809Z,9.33
2023-05-14T04:36:04.994Z,9.48
2023-05-14T04:39:09.866Z,9.63
2023-05-14T04:42:14.454Z,9.33
2023-05-14T04:45:19.377Z,9.88
2023-05-14T04:48:23.913Z,10.22
2023-05-14T04:51:28.590Z,10.11
2023-05-14T04:54:33.076Z,10.04
2023-05-14T04:57:37.742Z,10.52
2023-05-14T05:00:42.309Z,10.74
2023-05-14T05:03:46.830Z,10.55
2023-05-14T05:06:51.401Z,10.67
2023-05-14T05:09:55.952Z,10.95
2023-05-14T05:13:00.598Z,10.77
2023-05-14T05:16:05.481Z,11.10
2023-05-14T05:19:10.112Z,11.16
2023-05-14T05:22:14.696Z,10.88
2023-05-14T05:25:19.265Z,11.11
2023-05-14T05:28:23.731Z,11.14
2023-05-14T05:31:28.253Z,11.21
2023-05-14T05:34:32.874Z,11.28
2023-05-14T05:37:37.470Z,11.47
2023-05-14T05:40:41.942Z,11.60
2023-05-14T05:43:46.446Z,11.59
2023-05-14T05:46:51.078Z,11.56
2023-05-14T05:49:55.774Z,11.70
2023-05-14T05:53:00.321Z,11.92
2023-05-14T05:56:05.080Z,11.97
2023-05-14T05:59:09.930Z,12.36
2023-05-14T06:02:14.446Z,12.78
2023-05-14T06:05:19.539Z,12.86
2023-05-14T06:08:24.120Z,12.90
2023-05-14T06:11:28.812Z,13.27
2023-05-14T06:14:33.585Z,13.62
2023-05-14T06:17:39.129Z,13.28
2023-05-14T06:20:44.851Z,13.48
2023-05-14T06:23:49.357Z,13.63
2023-05-14T06:26:53.836Z,13.57
2023-05-14T06:29:58.419Z,13.75
2023-05-14T06:33:03.021Z,13.89
2023-05-14T06:36:08.274Z,14.30
2023-05-14T06:39:12.871Z,14.90
2023-05-14T06:42:18.179Z,14.68
2023-05-14T06:45:22.831Z,15.03
2023-05-14T06:48:29.373Z,15.10
2023-05-14T06:51:33.971Z,14.98
2023-05-14T06:54:39.215Z,15.24
2023-05-14T06:57:44.566Z,14.57
2023-05-14T07:00:49.018Z,15.37
2023-05-14T07:03:53.647Z,15.35
2023-05-14T07:06:58.634Z,15.29
2023-05-14T07:10:03.736Z,15.45
2023-05-14T07:13:08.412Z,15.49
2023-05-14T07:16:13.052Z,15.21
2023-05-14T07:19:17.565Z,15.64
2023-05-14T07:22:22.479Z,16.09
2023-05-14T07:25:27.271Z,16.18
2023-05-14T07:28:32.216Z,16.46
2023-05-14T07:31:36.867Z,16.27
2023-05-14T07:34:41.365Z,16.48
2023-05-14T07:37:46.133Z,16.29
2023-05-14T07:40:50.682Z,17.25
2023-05-14T07:43:55.254Z,16.91
2023-05-14T07:46:59.794Z,17.25
2023-05-14T07:50:04.599Z,17.34
2023-05-14T07:53:09.130Z,18.01
2023-05-14T07:56:13.686Z,18.03
2023-05-14T07:59:18.308Z,17.31
2023-05-14T08:02:23.055Z,18.58
2023-05-14T08:05:27.634Z,18.35
2023-05-14T08:08:32.444Z,18.65
2023-05-14T08:11:36.931Z,18.78
2023-05-14T08:14:41.487Z,18.93
2023-05-14T08:17:46.036Z,18.73
2023-05-14T08:20:51.240Z,19.49
2023-05-14T08:23:55.782Z,19.08
2023-05-14T08:27:00.600Z,18.96
2023-05-14T08:30:06.636Z,19.29
2023-05-14T08:33:11.251Z,19.90
2023-05-14T08:36:15.791Z,20.44
2023-05-14T08:39:20.366Z,19.82
2023-05-14T08:42:27.032Z,20.37
2023-05-14T08:45:34.805Z,20.37
2023-05-14T08:48:42.543Z,20.15
2023-05-14T08:51:48.440Z,20.72
2023-05-14T08:54:54.028Z,20.33
2023-05-14T08:57:58.721Z,20.78
2023-05-14T09:01:03.744Z,20.90
2023-05-14T09:04:09.426Z,20.67
2023-05-14T09:07:14.015Z,20.77
2023-05-14T09:10:18.766Z,20.76
2023-05-14T09:13:23.304Z,20.95
2023-05-14T09:16:28.393Z,20.96
2023-05-14T09:19:33.142Z,20.62
2023-05-14T09:22:38.768Z,20.20
2023-05-14T09:25:43.589Z,19.83
2023-05-14T09:28:48.192Z,20.08
2023-05-14T09:31:53.817Z,20.43
2023-05-14T09:34:58.486Z,19.65
2023-05-14T09:38:03.022Z,20.50
2023-05-14T09:41:07.620Z,19.82
2023-05-14T09:44:12.238Z,20.34
2023-05-14T09:47:17.044Z,21.17
2023-05-14T09:50:21.816Z,21.34
2023-05-14T09:53:26.368Z,21.26
2023-05-14T09:56:31.104Z,21.12
2023-05-14T09:59:35.707Z,20.57
2023-05-14T10:02:42.676Z,19.89
2023-05-14T10:05:49.520Z,20.49
2023-05-14T10:08:56.765Z,21.08
2023-05-14T10:12:01.745Z,21.61
2023-05-14T10:15:45.446Z,21.64
2023-05-14T10:18:56.982Z,20.98
2023-05-14T10:22:07.864Z,20.42
2023-05-14T10:25:13.341Z,20.83
2023-05-14T10:28:18.045Z,20.70
2023-05-14T10:31:51.681Z,20.13
2023-05-14T10:34:56.240Z,20.15
2023-05-14T10:38:01.008Z,20.02
2023-05-14T10:41:12.130Z,20.03
2023-05-14T10:44:17.208Z,20.31
2023-05-14T10:47:22.473Z,20.63
2023-05-14T10:50:27.116Z,20.56
2023-05-14T10:53:36.787Z,20.53
2023-05-14T10:56:45.678Z,20.28
2023-05-14T10:59:55.316Z,19.96
2023-05-14T11:03:00.604Z,18.92
2023-05-14T11:06:07.098Z,18.50
2023-05-14T11:09:15.910Z,19.09
2023-05-14T11:12:21.763Z,18.86
2023-05-14T11:15:26.695Z,18.89
2023-05-14T11:18:40.768Z,19.06
2023-05-14T11:21:45.427Z,19.10
2023-05-14T11:24:50.625Z,18.67
2023-05-14T11:27:58.270Z,18.80
2023-05-14T11:31:03.295Z,19.47
2023-05-14T11:34:08.031Z,19.19
2023-05-14T11:37:14.836Z,19.71
2023-05-14T11:40:19.558Z,19.62
2023-05-14T11:43:24.426Z,19.24
2023-05-14T11:46:30.930Z,19.78
2023-05-14T11:49:37.573Z,19.92
2023-05-14T11:52:42.225Z,19.51
2023-05-14T11:55:47.588Z,19.70
2023-05-14T11:58:58.539Z,20.19
2023-05-14T12:02:04.953Z,19.70
2023-05-14T12:05:13.420Z,20.23
2023-05-14T12:08:22.732Z,19.20
2023-05-14T12:11:31.832Z,19.14
2023-05-14T12:14:39.056Z,18.96
2023-05-14T12:17:49.857Z,18.46
2023-05-14T12:20:55.122Z,18.93
2023-05-14T12:24:02.652Z,18.98
2023-05-14T12:27:09.412Z,18.51
2023-05-14T12:33:23.778Z,19.57
2023-05-14T12:36:28.842Z,19.81
2023-05-14T12:39:34.697Z,19.57
2023-05-14T12:42:39.402Z,19.78
2023-05-14T12:45:44.172Z,19.85
2023-05-14T12:48:49.275Z,19.13
2023-05-14T12:52:07.742Z,19.20
2023-05-14T12:55:19.869Z,18.51
2023-05-14T12:58:24.378Z,18.99
2023-05-14T13:01:28.949Z,19.83
2023-05-14T13:04:34.118Z,19.26
2023-05-14T13:07:39.073Z,19.47
2023-05-14T13:10:44.846Z,19.54
2023-05-14T13:13:49.410Z,19.69
2023-05-14T13:16:54.017Z,18.36
2023-05-14T13:19:58.817Z,18.64
2023-05-14T13:23:03.311Z,18.57
2023-05-14T13:26:07.933Z,18.20
2023-05-14T13:29:12.408Z,18.45
2023-05-14T13:32:16.893Z,18.18
2023-05-14T13:35:21.703Z,18.25
2023-05-14T13:38:26.391Z,17.70
2023-05-14T13:41:34.799Z,17.93
2023-05-14T13:44:39.284Z,16.51
2023-05-14T13:47:44.198Z,17.35
2023-05-14T13:50:49.584Z,17.01
2023-05-14T13:56:59.514Z,16.74
2023-05-14T14:00:05.385Z,16.52
2023-05-14T14:03:09.984Z,16.81
2023-05-14T14:06:14.511Z,16.40
2023-05-14T14:09:18.943Z,16.49
2023-05-14T14:12:23.564Z,15.80
2023-05-14T14:15:28.094Z,16.44
2023-05-14T14:18:32.800Z,15.87
2023-05-14T14:21:39.682Z,15.99
2023-05-14T14:24:44.255Z,16.05
2023-05-14T14:27:49.264Z,15.99
2023-05-14T14:30:53.881Z,15.89
2023-05-14T14:33:58.414Z,15.63
2023-05-14T14:37:02.963Z,15.36
2023-05-14T14:40:09.455Z,15.28
2023-05-14T14:43:14.308Z,15.23
2023-05-14T14:46:18.825Z,15.30
2023-05-14T14:49:23.673Z,14.45
2023-05-14T14:52:28.516Z,14.71
2023-05-14T14:55:33.002Z,14.92
2023-05-14T14:58:38.294Z,14.58
2023-05-14T15:01:44.116Z,14.58
2023-05-14T15:04:48.699Z,14.78
2023-05-14T15:07:53.262Z,15.08
2023-05-14T15:10:57.761Z,14.89
2023-05-14T15:14:03.331Z,14.74
2023-05-14T15:17:07.901Z,14.70
2023-05-14T15:20:12.820Z,15.00
2023-05-14T15:23:17.593Z,14.63
2023-05-14T15:26:22.816Z,14.93
2023-05-14T15:29:27.447Z,14.87
2023-05-14T15:32:32.232Z,14.55
2023-05-14T15:35:36.917Z,14.68
2023-05-14T15:38:42.218Z,14.23
2023-05-14T15:41:46.850Z,14.01
2023-05-14T15:44:51.474Z,14.39
2023-05-14T15:47:56.114Z,14.20
2023-05-14T15:51:00.972Z,14.39
2023-05-14T15:54:05.626Z,14.20
2023-05-14T15:57:10.499Z,14.48
2023-05-14T16:00:15.387Z,14.33
2023-05-14T16:03:20.057Z,13.96
2023-05-14T16:06:25.905Z,13.97
2023-05-14T16:09:30.772Z,13.74
2023-05-14T16:12:35.329Z,13.59
2023-05-14T16:15:40.149Z,13.77
2023-05-14T16:18:44.687Z,13.85
2023-05-14T16:21:49.289Z,14.00
2023-05-14T16:24:53.820Z,13.80
2023-05-14T16:27:58.826Z,13.62
2023-05-14T16:31:03.899Z,13.63
2023-05-14T16:34:08.430Z,13.78
2023-05-14T16:37:13.751Z,13.91
2023-05-14T16:40:19.600Z,13.78
2023-05-14T16:43:24.249Z,13.90
2023-05-14T16:46:29.141Z,13.71
2023-05-14T16:49:33.898Z,13.73
2023-05-14T16:52:38.707Z,13.56
2023-05-14T16:55:43.158Z,13.89
2023-05-14T16:58:47.698Z,13.60
2023-05-14T17:01:52.609Z,13.42
2023-05-14T17:04:57.343Z,13.60
2023-05-14T17:08:01.988Z,13.50
2023-05-14T17:11:06.604Z,13.61
2023-05-14T17:14:11.128Z,13.55
2023-05-14T17:17:15.834Z,13.64
2023-05-14T17:20:20.835Z,13.77
2023-05-14T17:23:25.393Z,13.76
2023-05-14T17:26:29.899Z,13.74
2023-05-14T17:29:34.489Z,13.51
2023-05-14T17:32:39.158Z,13.54
2023-05-14T17:35:45.648Z,13.57
2023-05-14T17:38:50.071Z,13.58
2023-05-14T17:41:54.651Z,13.41
2023-05-14T17:44:59.066Z,13.23
2023-05-14T17:48:03.858Z,13.20
2023-05-14T17:51:08.399Z,13.25
2023-05-14T17:54:12.910Z,13.32
2023-05-14T17:57:17.555Z,12.87
2023-05-14T18:00:22.535Z,13.15
2023-05-14T18:03:27.345Z,13.33
2023-05-14T18:06:32.264Z,13.13
2023-05-14T18:09:36.815Z,12.78
2023-05-14T18:12:41.645Z,12.92
2023-05-14T18:15:46.354Z,13.04
2023-05-14T18:18:50.913Z,13.29
2023-05-14T18:21:55.474Z,12.96
2023-05-14T18:25:00.109Z,13.17
2023-05-14T18:28:04.937Z,13.11
2023-05-14T18:31:09.399Z,12.86
2023-05-14T18:34:14.028Z,12.75
2023-05-14T18:37:18.638Z,12.80
2023-05-14T18:40:23.180Z,12.91
2023-05-14T18:43:27.627Z,12.53
2023-05-14T18:46:32.135Z,12.71
2023-05-14T18:49:38.624Z,12.63
2023-05-14T18:52:43.203Z,12.57
2023-05-14T18:55:47.864Z,12.41
2023-05-14T18:58:52.811Z,12.29
2023-05-14T19:01:57.376Z,12.42
2023-05-14T19:05:01.857Z,12.71
2023-05-14T19:08:07.425Z,12.39
2023-05-14T19:11:11.748Z,12.07
2023-05-14T19:14:16.127Z,12.54
2023-05-14T19:17:20.669Z,12.03
2023-05-14T19:20:25.392Z,12.17
2023-05-14T19:23:31.114Z,12.03
2023-05-14T19:26:35.605Z,12.41
2023-05-14T19:29:39.973Z,12.00
2023-05-14T19:32:44.415Z,12.45
2023-05-14T19:35:48.858Z,12.24
2023-05-14T19:38:53.196Z,12.30
2023-05-14T19:41:57.917Z,12.24
2023-05-14T19:45:02.432Z,12.54
2023-05-14T19:48:07.017Z,12.53
2023-05-14T19:51:11.556Z,12.39
2023-05-14T19:54:15.997Z,12.43
2023-05-14T19:57:20.816Z,12.28
2023-05-14T20:00:26.486Z,12.54
2023-05-14T20:03:32.428Z,12.62
2023-05-14T20:06:38.120Z,12.37
2023-05-14T20:09:42.719Z,12.54
2023-05-14T20:12:47.292Z,12.13
2023-05-14T20:15:51.698Z,12.17
2023-05-14T20:18:56.509Z,11.83
2023-05-14T20:22:01.040Z,12.11
2023-05-14T20:25:05.960Z,12.06
2023-05-14T20:28:10.651Z,12.04
2023-05-14T20:31:15.145Z,11.92
2023-05-14T20:34:19.977Z,12.45
2023-05-14T20:37:25.410Z,12.20
2023-05-14T20:40:30.157Z,12.34
2023-05-14T20:43:34.575Z,12.16
2023-05-14T20:46:39.025Z,12.07
2023-05-14T20:49:43.396Z,12.18
2023-05-14T20:52:47.854Z,12.42
2023-05-14T20:55:52.287Z,12.09
2023-05-14T20:58:57.000Z,12.24
2023-05-14T21:02:01.498Z,12.11
2023-05-14T21:05:06.331Z,12.00
2023-05-14T21:08:10.864Z,12.08
2023-05-14T21:11:15.317Z,11.86
2023-05-14T21:14:19.964Z,11.96
2023-05-14T21:17:24.424Z,11.79
2023-05-14T21:20:28.839Z,12.03
2023-05-14T21:23:33.244Z,12.07
2023-05-14T21:26:37.695Z,11.99
2023-05-14T21:29:42.230Z,12.09
2023-05-14T21:32:46.650Z,11.86
2023-05-14T21:35:51.042Z,11.78
2023-05-14T21:38:55.415Z,11.70
2023-05-14T21:41:59.869Z,11.93
2023-05-14T21:45:04.363Z,11.78
2023-05-14T21:48:08.887Z,11.71
2023-05-14T21:51:13.340Z,11.91
2023-05-14T21:54:17.909Z,11.74
2023-05-14T21:57:22.750Z,11.67
2023-05-14T22:00:28.072Z,11.80
2023-05-14T22:03:32.464Z,11.77
2023-05-14T22:06:37.101Z,11.83
2023-05-14T22:09:41.564Z,11.64
2023-05-14T22:12:45.982Z,11.86
2023-05-14T22:15:58.136Z,11.83
2023-05-14T22:19:09.602Z,11.80
2023-05-14T22:22:14.161Z,11.48
2023-05-14T22:25:18.608Z,11.89
2023-05-14T22:28:22.949Z,12.00
2023-05-14T22:31:27.348Z,11.99
2023-05-14T22:34:31.826Z,11.96
2023-05-14T22:37:36.284Z,11.71
2023-05-14T22:40:40.770Z,11.61
2023-05-14T22:43:48.442Z,11.45
2023-05-14T22:46:52.888Z,11.65
2023-05-14T22:49:57.200Z,11.66
2023-05-14T22:53:01.614Z,11.66
2023-05-14T22:56:06.147Z,11.73
2023-05-14T22:59:10.608Z,11.44
2023-05-14T23:02:15.312Z,11.17
2023-05-14T23:05:19.659Z,11.50
2023-05-14T23:08:24.081Z,11.37
2023-05-14T23:11:28.592Z,11.68
2023-05-14T23:14:33.261Z,11.37
2023-05-14T23:17:38.272Z,11.56
2023-05-14T23:20:42.771Z,11.48
2023-05-14T23:23:48.430Z,11.53
2023-05-14T23:26:52.969Z,11.53
2023-05-14T23:29:57.296Z,11.53
2023-05-14T23:33:01.852Z,11.39
2023-05-14T23:36:06.558Z,11.56
2023-05-14T23:39:11.129Z,11.70
2023-05-14T23:42:15.673Z,11.66
2023-05-14T23:45:20.140Z,11.69
2023-05-14T23:48:25.013Z,11.73
2023-05-14T23:51:29.356Z,11.50
2023-05-14T23:54:33.743Z,11.49
2023-05-14T23:57:38.184Z,11.74
